Time;durP1;ratioP1;P1;durP2;ratioP2;P2;SDS_P1;SDS_P2;PMS_P1;PMS_P2;Temp;Humidity;BMP_temperature;BMP_pressure;BME280_temperature;BME280_humidity;BME280_pressure;Samples;Min_cycle;Max_cycle;Signal;HPM_P1;HPM_P2
2021/04/09 00:00:45;;;;;;;22.60;11.50;;;;;;;-0.78;79.95;99909.92;1724398;80;21140;-66
2021/04/09 00:03:13;;;;;;;19.57;10.30;;;;;;;-0.82;80.05;99916.30;1746891;80;21257;-65
2021/04/09 00:05:41;;;;;;;24.25;11.33;;;;;;;-0.85;80.20;99913.25;1749339;82;21172;-65
2021/04/09 00:08:09;;;;;;;21.77;11.95;;;;;;;-0.89;80.35;99919.63;1746856;82;21612;-66
2021/04/09 00:10:37;;;;;;;26.23;11.05;;;;;;;-0.91;80.53;99918.22;1749485;82;21172;-66
2021/04/09 00:13:05;;;;;;;19.70;10.82;;;;;;;-0.93;80.69;99923.02;1746895;81;21176;-65
2021/04/09 00:15:35;;;;;;;19.02;10.88;;;;;;;-0.95;80.83;99924.60;1724843;82;21227;-65
2021/04/09 00:18:05;;;;;;;21.68;10.95;;;;;;;-0.97;81.14;99926.70;1746759;82;21044;-65
2021/04/09 00:20:33;;;;;;;21.85;10.88;;;;;;;-0.97;81.38;99921.84;1749543;82;21132;-64
2021/04/09 00:23:01;;;;;;;22.55;11.38;;;;;;;-0.98;81.52;99927.76;1746992;82;21180;-65
2021/04/09 00:25:29;;;;;;;19.45;10.53;;;;;;;-0.97;81.58;99928.05;1749538;82;21228;-67
2021/04/09 00:27:57;;;;;;;17.20;10.13;;;;;;;-0.97;81.62;99930.75;1746471;82;21358;-69
2021/04/09 00:30:27;;;;;;;19.90;11.18;;;;;;;-0.96;81.77;99932.39;1815045;79;21130;-72
2021/04/09 00:32:54;;;;;;;15.68;9.45;;;;;;;-0.95;81.86;99934.03;1786247;79;21177;-66
2021/04/09 00:35:22;;;;;;;18.45;10.10;;;;;;;-0.94;81.82;99938.90;1786085;79;21129;-68
2021/04/09 00:37:51;;;;;;;18.73;10.90;;;;;;;-0.96;81.76;99936.44;1814988;77;21117;-67
2021/04/09 00:40:21;;;;;;;17.70;10.00;;;;;;;-0.98;81.91;99941.23;1814949;79;21369;-66
2021/04/09 00:42:49;;;;;;;18.73;9.78;;;;;;;-1.00;82.08;99944.69;1814982;77;21169;-66
2021/04/09 00:45:19;;;;;;;21.95;10.98;;;;;;;-1.04;82.12;99947.54;1814994;79;21145;-66
2021/04/09 00:47:46;;;;;;;22.13;10.72;;;;;;;-1.07;82.18;99948.83;1815203;79;21245;-67
2021/04/09 00:50:16;;;;;;;18.90;10.20;;;;;;;-1.08;82.33;99947.70;1815378;78;20952;-70
2021/04/09 00:52:46;;;;;;;18.95;11.20;;;;;;;-1.10;82.40;99952.50;1815275;78;21795;-68
2021/04/09 00:55:16;;;;;;;21.27;10.78;;;;;;;-1.11;82.57;99954.38;1815358;79;20963;-68
2021/04/09 00:57:43;;;;;;;20.85;10.58;;;;;;;-1.11;82.83;99962.98;1815302;79;21177;-65
2021/04/09 01:00:13;;;;;;;22.48;11.53;;;;;;;-1.11;82.99;99962.45;1815211;79;21153;-65
2021/04/09 01:02:41;;;;;;;20.17;10.48;;;;;;;-1.11;83.09;99965.16;1815366;79;21035;-65
2021/04/09 01:05:14;;;;;;;24.12;11.00;;;;;;;-1.10;83.09;99968.67;1786222;79;21344;-65
2021/04/09 01:07:43;;;;;;;16.73;10.58;;;;;;;-1.12;83.07;99966.73;1815148;79;21153;-66
2021/04/09 01:10:13;;;;;;;19.25;10.88;;;;;;;-1.11;83.08;99980.50;1786039;79;21185;-66
2021/04/09 01:12:41;;;;;;;20.27;11.00;;;;;;;-1.13;83.09;99979.91;1815382;79;21130;-65
2021/04/09 01:15:10;;;;;;;18.48;11.08;;;;;;;-1.15;83.19;99977.44;1815337;78;21174;-65
2021/04/09 01:17:44;;;;;;;19.82;9.83;;;;;;;-1.16;83.20;99980.39;1815411;79;21146;-65
2021/04/09 01:20:37;;;;;;;18.62;10.13;;;;;;;-1.19;83.20;99984.36;1815572;79;21131;-65
2021/04/09 01:23:31;;;;;;;19.80;10.88;;;;;;;-1.21;83.25;99985.11;1815695;79;21511;-65
2021/04/09 01:26:33;;;;;;;17.87;11.00;;;;;;;-1.24;83.32;99982.05;1815504;79;21586;-66
2021/04/09 01:29:39;;;;;;;20.17;11.48;;;;;;;-1.25;83.41;99992.53;1817813;78;21511;-71
2021/04/09 01:32:10;;;;;;;18.80;10.88;;;;;;;-1.30;83.53;99990.52;1819029;78;21586;-66
2021/04/09 01:34:42;;;;;;;23.50;12.28;;;;;;;-1.35;83.70;99999.28;1820462;78;20976;-65
2021/04/09 01:37:15;;;;;;;20.27;11.22;;;;;;;-1.38;83.80;99999.73;1818938;78;20973;-65
2021/04/09 01:40:07;;;;;;;23.65;12.18;;;;;;;-1.41;83.92;99999.37;1818928;78;21147;-67
2021/04/09 01:42:35;;;;;;;30.12;12.85;;;;;;;-1.45;84.07;100008.42;1844569;77;21044;-68
2021/04/09 01:45:04;;;;;;;25.27;11.75;;;;;;;-1.49;84.22;100008.58;1827795;77;22369;-67
2021/04/09 01:47:34;;;;;;;25.97;12.85;;;;;;;-1.52;84.30;100010.37;1818866;78;20961;-68
2021/04/09 01:50:04;;;;;;;30.80;13.43;;;;;;;-1.53;84.36;100010.59;1818781;78;21043;-66
2021/04/09 01:52:33;;;;;;;23.20;12.05;;;;;;;-1.58;84.43;100016.66;1818893;78;20965;-68
2021/04/09 01:55:03;;;;;;;24.52;12.58;;;;;;;-1.60;84.56;100021.44;1818956;78;21016;-68
2021/04/09 01:57:31;;;;;;;23.42;12.20;;;;;;;-1.62;84.57;100024.06;1820444;78;21400;-67
2021/04/09 02:00:00;;;;;;;23.22;12.05;;;;;;;-1.65;84.64;100029.37;1794151;78;21720;-67
2021/04/09 02:02:28;;;;;;;24.52;11.73;;;;;;;-1.67;84.68;100026.08;1819000;78;20909;-66
2021/04/09 02:04:56;;;;;;;22.70;12.35;;;;;;;-1.70;84.75;100026.52;1818741;77;20984;-67
2021/04/09 02:07:24;;;;;;;20.43;11.00;;;;;;;-1.73;84.81;100026.97;1818959;78;21538;-69
2021/04/09 02:09:52;;;;;;;25.17;11.78;;;;;;;-1.75;84.91;100033.13;1818815;78;21193;-67
2021/04/09 02:12:19;;;;;;;26.00;12.50;;;;;;;-1.79;84.96;100040.01;1820461;78;21028;-66
2021/04/09 02:14:53;;;;;;;23.05;11.60;;;;;;;-1.82;85.12;100037.76;1818933;78;20905;-67
2021/04/09 02:17:18;;;;;;;20.62;11.63;;;;;;;-1.85;85.26;100039.03;1818992;78;20937;-67
2021/04/09 02:19:47;;;;;;;20.40;11.38;;;;;;;-1.85;85.39;100043.59;1818705;78;21024;-67
2021/04/09 02:22:17;;;;;;;24.55;12.65;;;;;;;-1.89;85.48;100044.55;1820372;77;21196;-68
2021/04/09 02:24:48;;;;;;;19.02;10.95;;;;;;;-1.90;85.62;100046.95;1826458;77;20934;-67
2021/04/09 02:27:15;;;;;;;21.80;12.10;;;;;;;-1.91;85.79;100045.30;1841528;77;21065;-68
2021/04/09 02:29:43;;;;;;;23.02;12.23;;;;;;;-1.90;85.99;100045.60;1820582;77;21156;-67
2021/04/09 02:32:11;;;;;;;21.68;11.35;;;;;;;-1.89;86.33;100051.28;1820946;78;21623;-67
2021/04/09 02:34:41;;;;;;;21.77;12.18;;;;;;;-1.88;86.69;100052.11;1820847;78;21556;-67
2021/04/09 02:37:08;;;;;;;21.23;11.55;;;;;;;-1.83;86.87;100057.64;1820954;78;21536;-65
2021/04/09 02:39:36;;;;;;;20.00;10.78;;;;;;;-1.81;86.98;100063.63;1839087;77;20922;-67
2021/04/09 02:42:07;;;;;;;20.77;11.35;;;;;;;-1.80;87.07;100063.41;1757461;79;21061;-66
2021/04/09 02:44:36;;;;;;;21.37;11.35;;;;;;;-1.79;87.22;100065.58;1815526;79;21462;-67
2021/04/09 02:47:13;;;;;;;19.25;10.88;;;;;;;-1.77;87.35;100070.21;1815210;79;21374;-67
2021/04/09 02:49:47;;;;;;;22.30;11.70;;;;;;;-1.76;87.42;100074.55;1817169;78;20982;-66
2021/04/09 02:52:23;;;;;;;20.72;11.22;;;;;;;-1.77;87.46;100069.69;1820993;77;20927;-67
2021/04/09 02:54:53;;;;;;;25.08;12.70;;;;;;;-1.76;87.63;100082.62;1820787;77;21152;-66
2021/04/09 02:57:23;;;;;;;22.55;12.30;;;;;;;-1.75;87.83;100081.58;1824814;77;21167;-68
2021/04/09 02:59:52;;;;;;;24.35;12.58;;;;;;;-1.75;87.94;100086.45;1848838;77;21354;-66
2021/04/09 03:02:21;;;;;;;21.02;11.80;;;;;;;-1.73;87.97;100087.53;1818748;77;21615;-67
2021/04/09 03:04:49;;;;;;;24.12;11.55;;;;;;;-1.74;88.13;100085.92;1806058;79;21081;-66
2021/04/09 03:07:17;;;;;;;19.48;11.60;;;;;;;-1.73;88.27;100090.23;1806004;79;21473;-67
2021/04/09 03:09:45;;;;;;;21.00;12.25;;;;;;;-1.73;88.37;100091.05;1805882;79;21045;-67
2021/04/09 03:12:19;;;;;;;20.27;12.00;;;;;;;-1.72;88.45;100090.53;1848621;77;22352;-67
2021/04/09 03:14:51;;;;;;;22.65;12.25;;;;;;;-1.72;88.54;100098.60;1848714;77;21600;-66
2021/04/09 03:17:33;;;;;;;21.45;11.80;;;;;;;-1.72;89.17;100100.77;1777857;79;21544;-67
2021/04/09 03:20:03;;;;;;;21.97;12.78;;;;;;;-1.70;89.36;100101.37;1848767;77;21128;-67
2021/04/09 03:22:31;;;;;;;24.25;12.73;;;;;;;-1.69;89.49;100100.85;1805887;79;21145;-65
2021/04/09 03:24:59;;;;;;;25.55;13.22;;;;;;;-1.68;89.65;100099.80;1848833;77;21298;-65
2021/04/09 03:27:28;;;;;;;24.85;13.75;;;;;;;-1.68;89.77;100105.19;1848511;77;20990;-66
2021/04/09 03:29:56;;;;;;;28.50;12.60;;;;;;;-1.66;90.27;100111.17;1848480;77;21092;-67
2021/04/09 03:32:24;;;;;;;24.82;13.30;;;;;;;-1.62;90.29;100114.25;1848749;77;21053;-66
2021/04/09 03:34:53;;;;;;;22.98;13.53;;;;;;;-1.62;90.21;100114.25;1818852;77;21041;-65
2021/04/09 03:37:22;;;;;;;21.93;12.60;;;;;;;-1.61;90.26;100123.45;1848501;77;21426;-67
2021/04/09 03:39:52;;;;;;;24.37;13.85;;;;;;;-1.61;90.25;100120.76;1848755;77;21589;-67
2021/04/09 03:42:20;;;;;;;25.32;13.43;;;;;;;-1.61;90.28;100127.48;1804359;79;20978;-66
2021/04/09 03:44:48;;;;;;;28.32;15.95;;;;;;;-1.61;90.28;100132.88;1842434;77;21560;-66
2021/04/09 03:47:17;;;;;;;35.95;17.85;;;;;;;-1.61;90.36;100130.18;1849064;77;21483;-66
2021/04/09 03:49:45;;;;;;;29.02;15.83;;;;;;;-1.60;90.43;100137.20;1848597;77;21188;-66
2021/04/09 03:52:13;;;;;;;39.18;19.67;;;;;;;-1.58;90.62;100141.03;1848704;77;21556;-66
2021/04/09 03:54:41;;;;;;;49.38;25.17;;;;;;;-1.56;90.95;100145.15;1848877;77;20990;-66
2021/04/09 03:57:09;;;;;;;49.05;24.15;;;;;;;-1.53;90.93;100143.36;1848843;77;21025;-67
2021/04/09 03:59:37;;;;;;;34.40;18.73;;;;;;;-1.49;90.89;100153.16;1818499;77;21063;-66
2021/04/09 04:02:05;;;;;;;29.52;16.27;;;;;;;-1.46;90.84;100158.10;1848798;77;21985;-67
2021/04/09 04:04:33;;;;;;;25.50;15.75;;;;;;;-1.45;90.77;100162.44;1818870;77;21247;-67
2021/04/09 04:07:02;;;;;;;27.90;16.30;;;;;;;-1.40;90.89;100167.98;1819127;77;21551;-66
2021/04/09 04:09:30;;;;;;;31.05;16.97;;;;;;;-1.36;90.97;100172.70;1818771;77;21045;-67
2021/04/09 04:11:58;;;;;;;35.60;17.87;;;;;;;-1.32;90.96;100173.61;1848798;77;21124;-66
2021/04/09 04:14:27;;;;;;;29.87;16.97;;;;;;;-1.28;91.15;100174.81;1848987;77;22122;-67
2021/04/09 04:16:55;;;;;;;28.70;16.62;;;;;;;-1.22;91.47;100184.17;1848836;77;21639;-66
2021/04/09 04:19:24;;;;;;;30.48;16.97;;;;;;;-1.15;91.64;100183.55;1848661;77;21114;-69
2021/04/09 04:21:52;;;;;;;30.40;16.97;;;;;;;-1.06;91.81;100190.81;1848814;77;20970;-67
2021/04/09 04:24:21;;;;;;;22.48;13.95;;;;;;;-0.99;91.76;100186.17;1818703;77;21098;-66
2021/04/09 04:26:48;;;;;;;28.83;15.23;;;;;;;-0.91;91.86;100191.80;1848793;77;21369;-67
2021/04/09 04:29:17;;;;;;;24.37;14.03;;;;;;;-0.85;91.88;100195.76;1847173;77;21171;-69
2021/04/09 04:31:45;;;;;;;27.67;15.10;;;;;;;-0.77;91.89;100198.68;1848244;77;21096;-65
2021/04/09 04:34:13;;;;;;;25.43;14.28;;;;;;;-0.71;91.78;100200.47;1847906;77;21159;-67
2021/04/09 04:36:42;;;;;;;28.05;16.23;;;;;;;-0.66;91.71;100204.66;1847776;77;21184;-66
2021/04/09 04:39:10;;;;;;;26.70;13.88;;;;;;;-0.59;91.59;100215.37;1841570;77;22217;-66
2021/04/09 04:41:39;;;;;;;30.17;14.98;;;;;;;-0.52;91.58;100214.73;1847753;77;21123;-66
2021/04/09 04:44:07;;;;;;;33.78;14.68;;;;;;;-0.46;91.53;100217.88;1848593;77;21108;-67
2021/04/09 04:46:33;;;;;;;32.25;16.97;;;;;;;-0.40;91.44;100220.48;1847622;77;21152;-66
2021/04/09 04:49:01;;;;;;;31.62;15.95;;;;;;;-0.31;91.39;100228.27;1828140;77;21088;-68
2021/04/09 04:51:31;;;;;;;29.35;15.63;;;;;;;-0.26;91.20;100228.41;1827458;78;21535;-66
2021/04/09 04:53:58;;;;;;;30.68;15.98;;;;;;;-0.20;91.05;100226.14;1827339;78;21547;-66
2021/04/09 04:56:26;;;;;;;27.82;16.12;;;;;;;-0.15;90.88;100231.67;1827368;78;21111;-67
2021/04/09 04:58:53;;;;;;;28.38;15.03;;;;;;;-0.11;90.78;100230.99;1827340;78;21190;-66
2021/04/09 05:01:22;;;;;;;23.85;14.50;;;;;;;-0.05;90.80;100231.42;1827429;78;21088;-67
2021/04/09 05:03:49;;;;;;;29.35;15.93;;;;;;;0.02;90.71;100233.17;1827443;78;21360;-69
2021/04/09 05:06:18;;;;;;;28.95;15.23;;;;;;;0.07;90.46;100240.06;1827547;78;21489;-66
2021/04/09 05:08:46;;;;;;;27.90;14.00;;;;;;;0.13;90.51;100241.31;1827242;78;20974;-67
2021/04/09 05:11:14;;;;;;;29.23;15.08;;;;;;;0.20;90.48;100239.34;1827452;78;21089;-68
2021/04/09 05:13:42;;;;;;;27.60;15.90;;;;;;;0.29;90.39;100245.23;1794354;78;21065;-70
2021/04/09 05:16:10;;;;;;;27.52;16.40;;;;;;;0.36;90.26;100244.60;1803113;78;22388;-68
2021/04/09 05:18:39;;;;;;;27.87;15.03;;;;;;;0.44;90.12;100248.31;1802989;78;21069;-69
2021/04/09 05:21:07;;;;;;;26.27;14.35;;;;;;;0.51;89.67;100255.79;1821026;77;21569;-68
2021/04/09 05:23:35;;;;;;;31.40;15.98;;;;;;;0.56;89.34;100248.34;1820866;78;21643;-70
2021/04/09 05:26:02;;;;;;;25.92;14.87;;;;;;;0.60;89.28;100264.34;1821087;78;21124;-69
2021/04/09 05:28:30;;;;;;;37.03;17.40;;;;;;;0.67;89.25;100256.95;1820668;78;22664;-71
2021/04/09 05:30:57;;;;;;;33.53;16.70;;;;;;;0.75;88.92;100257.14;1810583;79;21093;-69
2021/04/09 05:33:25;;;;;;;25.17;14.28;;;;;;;0.84;88.87;100256.56;1810834;79;21042;-71
2021/04/09 05:35:52;;;;;;;27.00;15.23;;;;;;;0.92;88.69;100268.91;1810605;79;21534;-70
2021/04/09 05:38:21;;;;;;;25.15;14.95;;;;;;;0.99;88.59;100262.32;1810276;79;21553;-70
2021/04/09 05:40:48;;;;;;;30.60;16.20;;;;;;;1.10;88.27;100270.66;1810500;79;21252;-70
2021/04/09 05:43:17;;;;;;;27.40;14.38;;;;;;;1.18;87.97;100270.28;1810506;79;20936;-69
2021/04/09 05:45:44;;;;;;;22.85;13.75;;;;;;;1.26;87.86;100265.33;1810818;77;21151;-70
2021/04/09 05:48:12;;;;;;;27.65;14.98;;;;;;;1.35;87.45;100271.20;1810691;79;21563;-71
2021/04/09 05:50:40;;;;;;;28.62;15.30;;;;;;;1.42;87.04;100271.08;1810536;79;21036;-69
2021/04/09 05:53:08;;;;;;;28.12;13.75;;;;;;;1.47;86.70;100272.01;1810692;79;21188;-69
2021/04/09 05:55:35;;;;;;;27.45;15.13;;;;;;;1.54;86.55;100275.94;1810613;79;21599;-70
2021/04/09 05:58:03;;;;;;;25.05;13.78;;;;;;;1.59;86.26;100280.10;1810650;79;20985;-69
2021/04/09 06:00:30;;;;;;;23.95;14.58;;;;;;;1.63;86.14;100273.16;1810729;79;21162;-69
2021/04/09 06:02:58;;;;;;;25.40;14.30;;;;;;;1.68;86.11;100273.25;1810637;79;21574;-70
2021/04/09 06:05:25;;;;;;;26.02;14.47;;;;;;;1.79;86.31;100283.73;1810589;77;21675;-71
2021/04/09 06:07:55;;;;;;;24.07;14.65;;;;;;;1.90;86.34;100281.52;1810568;79;21182;-71
2021/04/09 06:10:23;;;;;;;24.18;14.30;;;;;;;2.06;86.48;100288.05;1816053;77;20966;-67
2021/04/09 06:12:51;;;;;;;23.07;14.43;;;;;;;2.21;85.64;100289.70;1810603;79;21128;-73
2021/04/09 06:15:20;;;;;;;26.10;13.58;;;;;;;2.32;85.48;100283.38;1843146;77;21124;-73
2021/04/09 06:17:50;;;;;;;25.00;15.38;;;;;;;2.44;85.04;100282.78;1843785;77;21170;-73
2021/04/09 06:20:20;;;;;;;24.65;14.98;;;;;;;2.54;84.29;100288.91;1835724;77;20926;-72
2021/04/09 06:22:49;;;;;;;29.55;16.20;;;;;;;2.61;84.13;100286.33;1826786;77;21120;-72
2021/04/09 06:25:19;;;;;;;27.73;16.70;;;;;;;2.71;83.81;100284.86;1820970;77;21509;-73
2021/04/09 06:27:47;;;;;;;29.18;16.23;;;;;;;2.82;83.81;100282.60;1819565;77;21145;-73
2021/04/09 06:30:16;;;;;;;26.20;15.58;;;;;;;2.94;83.48;100289.55;1819494;77;21729;-74
2021/04/09 06:32:44;;;;;;;27.67;15.53;;;;;;;3.06;82.22;100296.25;1821412;77;21146;-76
2021/04/09 06:35:13;;;;;;;27.52;15.60;;;;;;;3.15;82.06;100293.94;1815463;79;21120;-74
2021/04/09 06:37:42;;;;;;;25.72;15.10;;;;;;;3.21;81.68;100292.41;1815499;79;20987;-77
2021/04/09 06:40:12;;;;;;;26.15;15.55;;;;;;;3.29;81.48;100303.38;1815650;79;21233;-68
2021/04/09 06:42:45;;;;;;;29.67;15.38;;;;;;;3.42;80.57;100304.91;1787412;79;21200;-67
2021/04/09 06:45:15;;;;;;;25.40;16.12;;;;;;;3.48;80.24;100307.42;1815994;79;21129;-65
2021/04/09 06:47:42;;;;;;;29.98;16.27;;;;;;;3.55;79.69;100310.77;1815044;79;21606;-66
2021/04/09 06:50:11;;;;;;;25.08;14.03;;;;;;;3.64;79.71;100313.88;1815711;79;21157;-66
2021/04/09 06:52:39;;;;;;;26.15;15.98;;;;;;;3.79;80.12;100314.08;1815646;79;21070;-71
2021/04/09 06:55:09;;;;;;;23.85;15.00;;;;;;;3.93;79.06;100322.67;1821077;76;21383;-71
2021/04/09 06:57:39;;;;;;;27.55;16.25;;;;;;;4.06;79.03;100322.26;1815644;79;20980;-71
2021/04/09 07:00:09;;;;;;;25.17;15.75;;;;;;;4.22;78.61;100324.62;1815731;79;21471;-71
2021/04/09 07:02:37;;;;;;;27.90;16.12;;;;;;;4.35;77.87;100320.14;1815556;79;21048;-71
2021/04/09 07:05:08;;;;;;;26.75;16.40;;;;;;;4.48;76.54;100326.53;1815679;77;21048;-71
2021/04/09 07:07:36;;;;;;;26.20;14.95;;;;;;;4.74;76.33;100314.51;1815537;79;21354;-72
2021/04/09 07:10:04;;;;;;;23.47;14.25;;;;;;;4.74;76.33;100314.51;1815368;79;21490;-71
2021/04/09 07:12:33;;;;;;;24.72;14.95;;;;;;;4.88;76.01;100316.55;1815718;79;21099;-71
2021/04/09 07:15:06;;;;;;;23.38;13.58;;;;;;;5.02;75.20;100316.11;1813001;79;20984;-71
2021/04/09 07:17:47;;;;;;;26.33;15.13;;;;;;;5.16;74.62;100314.05;1815550;78;20920;-71
2021/04/09 07:20:19;;;;;;;24.10;14.05;;;;;;;5.28;74.52;100316.55;1815619;78;21801;-71
2021/04/09 07:22:58;;;;;;;23.02;13.68;;;;;;;5.47;73.82;100319.66;1815487;79;20961;-71
2021/04/09 07:25:38;;;;;;;22.05;14.18;;;;;;;5.61;72.17;100319.48;1815651;79;21047;-71
2021/04/09 07:28:18;;;;;;;22.70;13.32;;;;;;;5.70;71.50;100316.53;1815513;79;21101;-71
2021/04/09 07:30:50;;;;;;;22.05;14.35;;;;;;;5.82;71.55;100321.19;1815284;78;21119;-71
2021/04/09 07:33:19;;;;;;;23.22;14.83;;;;;;;6.04;71.59;100319.69;1815701;78;21139;-71
2021/04/09 07:36:00;;;;;;;21.97;13.48;;;;;;;6.84;67.78;100321.48;1815504;79;21008;-71
2021/04/09 07:38:35;;;;;;;23.25;14.53;;;;;;;6.84;67.78;100321.48;1815562;78;21380;-71
2021/04/09 07:41:08;;;;;;;20.40;13.32;;;;;;;7.27;65.89;100329.64;1815691;78;21131;-71
2021/04/09 07:43:39;;;;;;;21.40;14.18;;;;;;;7.60;62.83;100333.11;1815543;79;20931;-71
2021/04/09 07:46:24;;;;;;;20.60;12.93;;;;;;;7.97;62.44;100328.36;1815670;79;21188;-72
2021/04/09 07:49:04;;;;;;;21.65;13.70;;;;;;;8.37;59.28;100332.28;1815642;79;21145;-72
2021/04/09 07:51:34;;;;;;;18.45;13.10;;;;;;;8.62;58.38;100335.42;1815641;78;21141;-72
2021/04/09 07:54:09;;;;;;;18.50;12.75;;;;;;;8.99;59.31;100334.05;1815598;79;21086;-72
2021/04/09 07:56:42;;;;;;;22.17;12.45;;;;;;;9.38;54.73;100328.47;1815644;79;21050;-72
2021/04/09 07:59:09;;;;;;;;;;;;;;;9.66;52.44;100329.56;1818311;79;21363;-72
2021/04/09 08:01:47;;;;;;;17.55;10.65;;;;;;;9.83;52.47;100330.71;1815593;79;20515;-73
2021/04/09 08:04:15;;;;;;;18.50;11.88;;;;;;;10.09;48.09;100333.16;1815487;79;20971;-72
2021/04/09 08:06:43;;;;;;;16.23;11.70;;;;;;;10.17;50.91;100331.13;1831314;77;21125;-71
2021/04/09 08:09:10;;;;;;;17.55;10.72;;;;;;;10.27;50.57;100335.16;1847224;77;21582;-71
2021/04/09 08:11:38;;;;;;;15.88;10.13;;;;;;;10.53;49.33;100327.36;1810197;77;21648;-78
2021/04/09 08:14:15;;;;;;;16.82;11.28;;;;;;;10.79;45.94;100331.38;1798692;79;21047;-72
2021/04/09 08:16:47;;;;;;;15.65;10.93;;;;;;;10.76;48.82;100330.59;1818221;78;21444;-72
2021/04/09 08:19:24;;;;;;;12.90;9.63;;;;;;;10.69;45.90;100325.21;1820706;77;21164;-71
2021/04/09 08:21:55;;;;;;;13.72;10.03;;;;;;;10.65;45.71;100325.55;1780975;79;21534;-71
2021/04/09 08:24:25;;;;;;;14.68;9.65;;;;;;;10.55;45.30;100316.34;1816905;78;22275;-74
2021/04/09 08:26:53;;;;;;;12.82;9.00;;;;;;;10.30;44.92;100319.47;1828235;77;21144;-73
2021/04/09 08:29:22;;;;;;;19.07;11.43;;;;;;;9.82;45.41;100324.96;1848488;77;21540;-72
2021/04/09 08:31:50;;;;;;;16.00;10.72;;;;;;;9.22;47.19;100327.82;1848434;77;21060;-73
2021/04/09 08:34:20;;;;;;;15.23;10.82;;;;;;;8.73;49.95;100334.22;1849104;77;21036;-73
2021/04/09 08:36:49;;;;;;;15.75;10.35;;;;;;;8.40;50.99;100339.11;1840971;77;21429;-72
2021/04/09 08:39:18;;;;;;;21.00;12.23;;;;;;;8.13;52.00;100335.37;1845529;77;21089;-74
2021/04/09 08:41:48;;;;;;;16.73;9.18;;;;;;;8.01;53.12;100336.27;1843198;76;20887;-70
2021/04/09 08:44:17;;;;;;;14.50;9.98;;;;;;;8.22;50.29;100337.24;1815544;79;21021;-79
2021/04/09 08:46:46;;;;;;;17.02;9.85;;;;;;;8.57;50.84;100339.00;1774169;80;21097;-75
2021/04/09 08:49:16;;;;;;;15.75;9.20;;;;;;;8.79;48.38;100338.56;1761169;81;21196;-76
2021/04/09 08:51:44;;;;;;;13.40;8.85;;;;;;;8.80;48.73;100335.27;1781915;80;21579;-70
2021/04/09 08:54:23;;;;;;;15.38;9.20;;;;;;;8.79;49.06;100333.09;1792797;80;21029;-77
2021/04/09 08:56:50;;;;;;;12.10;8.90;;;;;;;8.80;50.45;100338.83;1772798;80;21189;-73
2021/04/09 08:59:41;;;;;;;14.75;9.93;;;;;;;8.80;49.20;100331.17;1792797;80;21194;-72
2021/04/09 09:02:24;;;;;;;15.45;9.95;;;;;;;8.65;48.57;100334.03;1792752;80;22792;-77
2021/04/09 09:05:01;;;;;;;15.30;9.33;;;;;;;8.43;49.79;100342.64;1779703;80;21028;-78
2021/04/09 09:07:53;;;;;;;15.72;8.83;;;;;;;8.34;49.18;100333.39;1773408;81;20987;-76
2021/04/09 09:10:42;;;;;;;28.73;9.05;;;;;;;8.25;48.56;100345.44;1792485;80;21579;-72
2021/04/09 09:13:20;;;;;;;13.43;7.50;;;;;;;8.07;48.74;100342.81;1791696;80;21303;-74
2021/04/09 09:15:55;;;;;;;14.18;8.63;;;;;;;8.06;49.27;100341.72;1770819;80;21120;-75
2021/04/09 09:18:28;;;;;;;11.78;8.45;;;;;;;8.45;50.12;100341.27;1770869;80;21137;-74
2021/04/09 09:21:15;;;;;;;14.80;9.63;;;;;;;8.96;48.20;100335.43;1772248;80;21043;-74
2021/04/09 09:24:03;;;;;;;17.32;11.05;;;;;;;9.14;48.39;100338.03;1778762;80;21183;-75
2021/04/09 09:26:42;;;;;;;17.70;10.40;;;;;;;9.36;48.17;100340.27;1779910;80;21167;-75
2021/04/09 09:29:21;;;;;;;17.23;9.73;;;;;;;9.85;45.44;100330.42;1780166;80;21380;-74
2021/04/09 09:32:04;;;;;;;17.15;9.75;;;;;;;10.12;44.41;100338.05;1750899;80;21095;-75
2021/04/09 09:34:42;;;;;;;;;;;;;;;10.05;43.52;100338.41;1756856;80;21046;-71
2021/04/09 09:37:29;;;;;;;15.00;9.00;;;;;;;10.18;46.34;100337.70;1753465;80;20228;-74
2021/04/09 09:40:01;;;;;;;12.35;7.97;;;;;;;10.64;46.25;100333.52;1761936;80;21584;-73
2021/04/09 09:42:34;;;;;;;10.50;6.95;;;;;;;10.86;42.56;100343.36;1754356;80;22357;-73
2021/04/09 09:45:09;;;;;;;10.05;6.42;;;;;;;10.98;42.55;100337.38;1753879;80;21005;-75
2021/04/09 09:47:44;;;;;;;15.25;9.00;;;;;;;10.98;40.29;100337.38;1749688;82;21055;-75
2021/04/09 09:50:17;;;;;;;13.13;8.65;;;;;;;10.77;40.99;100334.97;1749543;81;21181;-76
2021/04/09 09:55:42;;;;;;;14.30;8.90;;;;;;;10.21;42.83;100334.41;1879438;75;23392;-73
2021/04/09 09:58:16;;;;;;;13.10;6.62;;;;;;;10.03;42.92;100341.19;1780028;80;21029;-74
2021/04/09 10:00:47;;;;;;;10.43;7.28;;;;;;;9.70;40.38;100337.47;1814389;77;21427;-74
2021/04/09 10:03:19;;;;;;;10.18;6.65;;;;;;;9.48;43.06;100329.19;1832992;78;20990;-74
2021/04/09 10:06:05;;;;;;;13.28;6.53;;;;;;;9.66;42.03;100330.94;1804614;78;21165;-74
2021/04/09 10:08:36;;;;;;;9.18;6.47;;;;;;;10.07;40.81;100334.00;1754670;79;21110;-73
2021/04/09 10:11:16;;;;;;;11.88;7.37;;;;;;;10.37;38.46;100334.20;1750965;81;20969;-72
2021/04/09 10:13:45;;;;;;;12.90;7.05;;;;;;;10.20;39.79;100329.20;1751252;81;21206;-73
2021/04/09 10:16:21;;;;;;;9.08;6.15;;;;;;;10.02;40.62;100331.32;1752962;81;21085;-74
2021/04/09 10:18:53;;;;;;;8.70;5.62;;;;;;;10.01;39.77;100336.55;1747694;81;21607;-73
2021/04/09 10:21:32;;;;;;;11.12;6.80;;;;;;;9.95;39.76;100327.56;1759539;81;21120;-74
2021/04/09 10:24:18;;;;;;;10.13;5.17;;;;;;;9.93;39.62;100325.66;1758430;81;22385;-73
2021/04/09 10:26:55;;;;;;;7.22;4.83;;;;;;;9.93;39.09;100325.11;1726551;81;21965;-74
2021/04/09 10:29:35;;;;;;;9.93;5.22;;;;;;;10.19;38.68;100328.91;1727053;81;21076;-72
2021/04/09 10:32:07;;;;;;;8.80;5.45;;;;;;;10.64;37.12;100328.84;1755384;81;21543;-72
2021/04/09 10:34:35;;;;;;;8.25;5.00;;;;;;;10.87;35.62;100322.45;1723559;81;21598;-73
2021/04/09 10:37:08;;;;;;;9.15;5.65;;;;;;;10.88;34.89;100323.27;1755552;81;21591;-72
2021/04/09 10:39:38;;;;;;;9.53;5.83;;;;;;;10.73;35.32;100327.06;1704345;81;22319;-73
2021/04/09 10:42:06;;;;;;;10.88;6.47;;;;;;;10.54;36.06;100331.19;1751107;81;21615;-75
2021/04/09 10:44:34;;;;;;;7.87;5.53;;;;;;;10.33;36.05;100321.63;1729327;81;21171;-75
2021/04/09 10:47:06;;;;;;;11.33;5.78;;;;;;;10.16;36.58;100325.39;1776557;80;21116;-74
2021/04/09 10:49:37;;;;;;;9.30;6.03;;;;;;;9.97;37.26;100319.04;1787447;79;21159;-73
2021/04/09 10:52:11;;;;;;;12.30;6.60;;;;;;;9.86;38.18;100325.20;1793913;79;21344;-72
2021/04/09 10:54:41;;;;;;;9.38;5.70;;;;;;;9.85;38.35;100324.38;1759742;81;21159;-74
2021/04/09 10:57:18;;;;;;;15.68;8.63;;;;;;;9.78;37.46;100319.83;1761063;81;21104;-76
2021/04/09 10:59:49;;;;;;;10.70;5.97;;;;;;;9.71;38.09;100327.59;1765256;81;21163;-73
2021/04/09 11:02:24;;;;;;;10.20;5.47;;;;;;;9.60;37.14;100320.58;1762785;80;21097;-74
2021/04/09 11:04:55;;;;;;;7.95;5.67;;;;;;;9.48;37.63;100327.82;1773131;79;21371;-73
2021/04/09 11:07:47;;;;;;;;;;;;;;;9.44;37.98;100323.20;1749027;80;21502;-76
2021/04/09 11:10:34;;;;;;;10.20;6.12;;;;;;;9.31;37.30;100321.14;1776179;79;20562;-77
2021/04/09 11:13:01;;;;;;;10.25;5.95;;;;;;;9.13;38.49;100323.52;1774059;79;21125;-74
2021/04/09 11:15:43;;;;;;;9.78;6.03;;;;;;;9.09;38.72;100319.72;1790532;79;21075;-76
2021/04/09 11:18:13;;;;;;;12.40;6.45;;;;;;;9.07;38.63;100323.29;1761562;80;22165;-75
2021/04/09 11:20:44;;;;;;;9.28;6.47;;;;;;;9.14;38.57;100322.96;1771328;79;21601;-72
2021/04/09 11:23:16;;;;;;;8.50;5.80;;;;;;;9.21;39.03;100322.08;1761492;80;21554;-74
2021/04/09 11:25:49;;;;;;;8.60;5.90;;;;;;;9.36;37.95;100314.23;1759713;80;20900;-74
2021/04/09 11:28:28;;;;;;;11.05;6.25;;;;;;;9.49;38.53;100310.27;1769733;79;21138;-73
2021/04/09 11:31:02;;;;;;;7.80;5.37;;;;;;;9.78;39.18;100310.23;1754916;80;21126;-75
2021/04/09 11:33:33;;;;;;;9.53;6.42;;;;;;;10.11;37.68;100304.31;1759269;80;21058;-74
2021/04/09 11:36:23;;;;;;;10.53;5.83;;;;;;;10.59;36.92;100301.47;1799593;79;21035;-73
2021/04/09 11:39:18;;;;;;;7.45;4.78;;;;;;;11.22;36.24;100299.05;1782598;79;21006;-73